Airfield :
LOGIN :

Register | Disclaimer

   EN    FR    IT 

 










Legend :    VFR   Marginal VFR   IFR   Intensive IFR   Very Intensive IFR
Visi :
Ceiling :
>= 8 km
>= 3000ft
5 to 8 km
1000 to 3000 ft
1500m to 5 km
500 to 1000 ft
800 to 1500m
200 to 500 ft
< 800m
< 200 ft
Symbols :   Thunderstorms  Fog  Heavy snow  Heavy precipitations  Wind > 20 kt
SIGMETs :     Misc.  Thunderstorms  Icing  Turbulence  Mountain Waves  Volcanic Ashes






- Airport Elevation : 353 ft
- IATA code : LIN


LIML - Milano Linate

CURRENT METAR :
  • 230950Z 23006KT 200V260 9999 BKN100 07/05 Q0995 NOSIG

EXPIRED METARs :
  • 230920Z 25006KT 9999 SCT050 BKN090 07/05 Q0995 NOSIG
  • 230850Z 25006KT 210V280 9999 -RA FEW015 BKN050 07/04 Q0994 NOSIG
  • 230820Z 31005KT 280V350 9999 -RA SCT015 BKN045 07/04 Q0994 NOSIG
  • 230750Z 36009KT 9999 -RA BKN045 07/04 Q0994 NOSIG
  • 230720Z 01009KT 9999 -RA BKN045 07/04 Q0993 WS R36 NOSIG

TAF TAF LIML
Valid from the 23 at 06:00 until the 24 at 06:00 UTC


230500Z 2306/2406 VRB03KT 7000 SCT025
TEMPO 2306/2309 2000 BR
TEMPO 2320/2406 0800 FG



MET'MAP, your aeronautical weather chart ! - Copyright ORBIFLY December 2007 - Disclaimer

ORBIFLY MET'MAP TEAM :

Programming & Development : Alexandra Zaïnal
Concept & original design : Baudouin d'Aumeries
Assistance for programming : Marc-Olivier Méhu
Technical & hardware support : Manuel Goepfert

Contact : metmap@orbifly.com




SOURCES & CREDITS :

   NOAA